createdAt,value
2017-09-30T00:02:16.719Z,20.41
2017-09-30T00:04:44.114Z,20.44
2017-09-30T00:07:11.523Z,20.41
2017-09-30T00:09:38.935Z,20.35
2017-09-30T00:12:06.331Z,20.33
2017-09-30T00:14:33.731Z,20.39
2017-09-30T00:17:01.129Z,20.41
2017-09-30T00:19:28.530Z,20.40
2017-09-30T00:21:55.927Z,20.45
2017-09-30T00:24:23.338Z,20.48
2017-09-30T00:26:50.740Z,20.46
2017-09-30T00:29:18.134Z,20.45
2017-09-30T00:31:45.536Z,20.48
2017-09-30T00:34:12.938Z,20.45
2017-09-30T00:36:40.342Z,20.44
2017-09-30T00:39:07.747Z,20.40
2017-09-30T00:41:35.155Z,20.38
2017-09-30T00:44:02.547Z,20.42
2017-09-30T00:46:29.943Z,20.39
2017-09-30T00:48:57.373Z,20.41
2017-09-30T00:51:24.771Z,20.39
2017-09-30T00:53:52.170Z,20.38
2017-09-30T00:56:19.575Z,20.35
2017-09-30T00:58:46.982Z,20.31
2017-09-30T01:01:14.383Z,20.30
2017-09-30T01:03:41.777Z,20.32
2017-09-30T01:06:09.178Z,20.31
2017-09-30T01:08:36.574Z,20.30
2017-09-30T01:11:03.975Z,20.28
2017-09-30T01:13:31.373Z,20.27
2017-09-30T01:15:58.787Z,20.25
2017-09-30T01:18:26.182Z,20.23
2017-09-30T01:20:53.575Z,20.23
2017-09-30T01:23:20.974Z,20.24
2017-09-30T01:25:48.384Z,20.24
2017-09-30T01:28:15.783Z,20.24
2017-09-30T01:30:43.178Z,20.27
2017-09-30T01:33:10.585Z,20.28
2017-09-30T01:35:37.985Z,20.32
2017-09-30T01:38:05.383Z,20.32
2017-09-30T01:40:32.786Z,20.29
2017-09-30T01:43:00.182Z,20.27
2017-09-30T01:45:27.623Z,20.28
2017-09-30T01:47:55.015Z,20.25
2017-09-30T01:50:22.422Z,20.23
2017-09-30T01:52:49.818Z,20.25
2017-09-30T01:55:17.214Z,20.25
2017-09-30T01:57:44.618Z,20.25
2017-09-30T02:00:12.014Z,20.27
2017-09-30T02:02:39.418Z,20.26
2017-09-30T02:05:06.815Z,20.10
2017-09-30T02:07:34.218Z,19.93
2017-09-30T02:10:01.614Z,19.74
2017-09-30T02:12:29.026Z,19.51
2017-09-30T02:14:56.417Z,19.32
2017-09-30T02:17:23.813Z,19.04
2017-09-30T02:19:51.215Z,18.82
2017-09-30T02:22:18.606Z,18.52
2017-09-30T02:24:46.010Z,18.34
2017-09-30T02:27:13.408Z,18.21
2017-09-30T02:29:40.810Z,18.02
2017-09-30T02:32:08.231Z,17.81
2017-09-30T02:34:35.627Z,17.74
2017-09-30T02:37:03.033Z,17.65
2017-09-30T02:39:30.426Z,17.56
2017-09-30T02:41:57.830Z,17.60
2017-09-30T02:44:25.227Z,17.54
2017-09-30T02:46:52.637Z,17.51
2017-09-30T02:49:20.031Z,17.49
2017-09-30T02:51:47.426Z,17.50
2017-09-30T02:54:14.830Z,17.54
2017-09-30T02:56:42.229Z,17.52
2017-09-30T02:59:09.634Z,17.53
2017-09-30T03:01:37.040Z,17.56
2017-09-30T03:04:04.447Z,17.55
2017-09-30T03:06:31.842Z,17.55
2017-09-30T03:08:59.234Z,17.58
2017-09-30T03:11:26.642Z,17.57
2017-09-30T03:13:54.040Z,17.48
2017-09-30T03:16:21.445Z,17.40
2017-09-30T03:18:48.846Z,17.39
2017-09-30T03:21:16.255Z,17.40
2017-09-30T03:23:43.647Z,17.45
2017-09-30T03:26:11.046Z,17.46
2017-09-30T03:28:38.450Z,17.49
2017-09-30T03:31:05.846Z,17.62
2017-09-30T03:33:33.255Z,17.77
2017-09-30T03:36:00.656Z,17.76
2017-09-30T03:38:28.073Z,17.85
2017-09-30T03:40:55.469Z,17.81
2017-09-30T03:43:22.870Z,17.78
2017-09-30T03:45:50.267Z,17.71
2017-09-30T03:48:17.668Z,17.79
2017-09-30T03:50:45.070Z,17.87
2017-09-30T03:53:12.470Z,17.94
2017-09-30T03:55:39.883Z,18.01
2017-09-30T03:58:07.279Z,18.02
2017-09-30T04:00:34.682Z,18.02
2017-09-30T04:03:02.079Z,18.00
2017-09-30T04:05:29.474Z,17.98
2017-09-30T04:07:56.877Z,17.99
2017-09-30T04:10:24.258Z,17.93
2017-09-30T04:12:51.666Z,17.94
2017-09-30T04:15:19.063Z,17.96
2017-09-30T04:17:46.458Z,17.96
2017-09-30T04:20:13.870Z,17.95
2017-09-30T04:22:41.266Z,17.96
2017-09-30T04:25:08.676Z,17.91
2017-09-30T04:27:36.070Z,17.89
2017-09-30T04:30:03.478Z,17.77
2017-09-30T04:32:30.882Z,17.82
2017-09-30T04:34:58.280Z,17.60
2017-09-30T04:37:25.745Z,17.60
2017-09-30T04:39:53.127Z,17.60
2017-09-30T04:42:20.537Z,17.53
2017-09-30T04:44:47.925Z,17.62
2017-09-30T04:47:15.318Z,17.69
2017-09-30T04:49:42.720Z,17.76
2017-09-30T04:52:10.107Z,17.77
2017-09-30T04:54:37.514Z,17.78
2017-09-30T04:57:04.922Z,17.73
2017-09-30T04:59:32.314Z,17.76
2017-09-30T05:01:59.709Z,17.81
2017-09-30T05:04:27.114Z,17.81
2017-09-30T05:06:54.503Z,17.73
2017-09-30T05:09:21.898Z,17.77
2017-09-30T05:11:49.294Z,17.70
2017-09-30T05:14:16.714Z,17.71
2017-09-30T05:16:44.102Z,17.74
2017-09-30T05:19:11.499Z,17.76
2017-09-30T05:21:38.897Z,17.75
2017-09-30T05:24:06.290Z,17.77
2017-09-30T05:26:33.698Z,17.74
2017-09-30T05:29:01.105Z,17.70
2017-09-30T05:31:32.106Z,17.69
2017-09-30T05:33:59.506Z,17.66
2017-09-30T05:36:26.891Z,17.68
2017-09-30T05:38:54.290Z,17.72
2017-09-30T05:41:21.674Z,17.68
2017-09-30T05:43:49.082Z,17.70
2017-09-30T05:46:16.478Z,17.65
2017-09-30T05:48:43.892Z,17.54
2017-09-30T05:51:11.284Z,17.55
2017-09-30T05:53:38.679Z,17.58
2017-09-30T05:56:06.082Z,17.62
2017-09-30T05:58:33.496Z,17.62
2017-09-30T06:01:00.878Z,17.66
2017-09-30T06:03:28.299Z,17.57
2017-09-30T06:05:55.695Z,17.67
2017-09-30T06:08:23.085Z,17.70
2017-09-30T06:10:50.501Z,17.59
2017-09-30T06:13:18.311Z,17.67
2017-09-30T06:15:45.702Z,17.66
2017-09-30T06:18:13.091Z,17.78
2017-09-30T06:20:40.494Z,17.82
2017-09-30T06:23:07.892Z,17.81
2017-09-30T06:25:35.283Z,17.84
2017-09-30T06:28:15.164Z,17.92
2017-09-30T06:30:42.552Z,17.93
2017-09-30T06:33:09.946Z,17.97
2017-09-30T06:35:37.330Z,17.98
2017-09-30T06:38:04.722Z,18.00
2017-09-30T06:40:32.111Z,18.02
2017-09-30T06:42:59.502Z,18.06
2017-09-30T06:45:26.895Z,18.05
2017-09-30T06:47:54.282Z,18.02
2017-09-30T06:50:21.678Z,17.98
2017-09-30T06:52:49.067Z,17.97
2017-09-30T06:55:16.463Z,17.97
2017-09-30T06:57:43.847Z,18.00
2017-09-30T07:00:11.239Z,17.99
2017-09-30T07:02:38.630Z,17.99
2017-09-30T07:05:06.019Z,18.01
2017-09-30T07:07:33.410Z,18.03
2017-09-30T07:10:00.816Z,18.08
2017-09-30T07:12:28.194Z,18.09
2017-09-30T07:14:55.589Z,18.10
2017-09-30T07:17:22.984Z,18.15
2017-09-30T07:19:50.417Z,18.16
2017-09-30T07:22:17.790Z,18.18
2017-09-30T07:24:45.183Z,18.25
2017-09-30T07:27:12.590Z,18.30
2017-09-30T07:29:39.982Z,18.24
2017-09-30T07:32:07.386Z,18.26
2017-09-30T07:34:34.781Z,18.28
2017-09-30T07:37:02.174Z,18.32
2017-09-30T07:39:29.579Z,18.33
2017-09-30T07:41:56.975Z,18.39
2017-09-30T07:44:24.382Z,18.38
2017-09-30T07:46:51.781Z,18.43
2017-09-30T07:49:19.175Z,18.44
2017-09-30T07:51:46.578Z,18.40
2017-09-30T07:54:13.981Z,18.39
2017-09-30T07:56:41.396Z,18.43
2017-09-30T07:59:08.791Z,18.42
2017-09-30T08:01:36.186Z,18.42
2017-09-30T08:04:03.582Z,18.41
2017-09-30T08:06:30.979Z,18.43
2017-09-30T08:08:58.390Z,18.39
2017-09-30T08:11:25.788Z,18.39
2017-09-30T08:13:53.178Z,18.44
2017-09-30T08:16:20.580Z,18.44
2017-09-30T08:18:48.213Z,18.44
2017-09-30T08:21:15.608Z,18.46
2017-09-30T08:23:43.019Z,18.47
2017-09-30T08:26:12.489Z,18.48
2017-09-30T08:28:39.882Z,18.54
2017-09-30T08:31:07.286Z,18.59
2017-09-30T08:33:34.699Z,18.57
2017-09-30T08:36:02.094Z,18.60
2017-09-30T08:38:29.497Z,18.61
2017-09-30T08:40:57.776Z,18.65
2017-09-30T08:43:25.182Z,18.66
2017-09-30T08:45:52.589Z,18.74
2017-09-30T08:48:20.958Z,18.76
2017-09-30T08:50:48.358Z,18.87
2017-09-30T08:53:15.758Z,18.94
2017-09-30T08:55:43.160Z,19.00
2017-09-30T08:58:10.563Z,19.09
2017-09-30T09:00:37.978Z,19.12
2017-09-30T09:03:05.378Z,19.14
2017-09-30T09:05:32.778Z,19.17
2017-09-30T09:08:00.219Z,19.17
2017-09-30T09:10:27.635Z,19.19
2017-09-30T09:12:55.031Z,19.21
2017-09-30T09:15:22.426Z,19.23
2017-09-30T09:17:49.828Z,19.27
2017-09-30T09:20:17.218Z,19.30
2017-09-30T09:22:44.650Z,19.34
2017-09-30T09:25:12.114Z,19.42
2017-09-30T09:27:39.517Z,19.49
2017-09-30T09:30:06.939Z,19.58
2017-09-30T09:32:41.126Z,19.65
2017-09-30T09:35:08.555Z,19.52
2017-09-30T09:37:35.999Z,19.46
2017-09-30T09:40:03.406Z,19.37
2017-09-30T09:42:30.857Z,19.27
2017-09-30T09:44:58.251Z,19.14
2017-09-30T09:47:25.658Z,19.11
2017-09-30T09:49:53.078Z,19.13
2017-09-30T09:52:20.487Z,19.29
2017-09-30T09:54:47.886Z,19.30
2017-09-30T09:57:15.292Z,19.24
2017-09-30T09:59:42.694Z,19.21
2017-09-30T10:02:10.119Z,19.13
2017-09-30T10:04:37.543Z,19.08
2017-09-30T10:07:04.944Z,18.95
2017-09-30T10:09:32.340Z,18.93
2017-09-30T10:11:59.742Z,18.80
2017-09-30T10:14:27.827Z,18.71
2017-09-30T10:16:55.226Z,18.57
2017-09-30T10:19:22.635Z,18.34
2017-09-30T10:21:56.401Z,18.16
2017-09-30T10:24:23.801Z,17.62
2017-09-30T10:26:51.215Z,17.36
2017-09-30T10:29:18.646Z,17.14
2017-09-30T10:31:46.045Z,16.90
2017-09-30T10:34:13.442Z,16.98
2017-09-30T10:36:40.967Z,16.95
2017-09-30T10:39:08.383Z,16.85
2017-09-30T10:41:35.774Z,16.65
2017-09-30T10:44:05.826Z,16.62
2017-09-30T10:46:33.235Z,16.68
2017-09-30T10:49:00.626Z,16.59
2017-09-30T10:51:28.039Z,16.58
2017-09-30T10:53:55.555Z,16.59
2017-09-30T10:56:22.940Z,16.45
2017-09-30T10:58:56.658Z,16.47
2017-09-30T11:01:31.289Z,16.35
2017-09-30T11:03:58.742Z,16.23
2017-09-30T11:06:26.198Z,16.11
2017-09-30T11:09:00.218Z,16.13
2017-09-30T11:11:27.602Z,16.06
2017-09-30T11:13:54.994Z,16.12
2017-09-30T11:16:22.398Z,16.17
2017-09-30T11:18:49.786Z,16.13
2017-09-30T11:21:17.187Z,16.09
2017-09-30T11:23:44.593Z,15.96
2017-09-30T11:26:11.994Z,15.78
2017-09-30T11:28:39.395Z,15.92
2017-09-30T11:31:06.790Z,15.99
2017-09-30T11:33:34.197Z,16.04
2017-09-30T11:36:01.596Z,16.08
2017-09-30T11:38:28.994Z,16.11
2017-09-30T11:40:56.404Z,16.10
2017-09-30T11:43:23.861Z,16.11
2017-09-30T11:45:51.249Z,16.05
2017-09-30T11:48:31.855Z,15.98
2017-09-30T11:50:59.246Z,16.06
2017-09-30T11:53:26.635Z,16.09
2017-09-30T11:55:54.026Z,16.18
2017-09-30T11:58:21.427Z,16.28
2017-09-30T12:00:48.880Z,16.26
2017-09-30T12:03:16.268Z,16.23
2017-09-30T12:05:43.734Z,16.23
2017-09-30T12:08:11.144Z,16.31
2017-09-30T12:10:38.534Z,16.40
2017-09-30T12:13:05.943Z,16.43
2017-09-30T12:15:33.338Z,16.29
2017-09-30T12:18:00.738Z,16.27
2017-09-30T12:20:28.140Z,16.25
2017-09-30T12:22:55.547Z,16.11
2017-09-30T12:25:22.946Z,16.19
2017-09-30T12:27:50.340Z,16.28
2017-09-30T12:30:17.742Z,16.30
2017-09-30T12:32:45.142Z,16.28
2017-09-30T12:35:12.555Z,16.20
2017-09-30T12:37:39.962Z,16.06
2017-09-30T12:40:07.381Z,15.95
2017-09-30T12:42:34.790Z,15.95
2017-09-30T12:45:02.207Z,15.98
2017-09-30T12:47:29.618Z,16.05
2017-09-30T12:49:57.020Z,16.08
2017-09-30T12:52:24.423Z,16.06
2017-09-30T12:54:51.827Z,16.07
2017-09-30T12:57:19.223Z,16.06
2017-09-30T12:59:46.632Z,16.00
2017-09-30T13:02:14.026Z,16.04
2017-09-30T13:04:41.430Z,15.93
2017-09-30T13:07:08.825Z,15.87
2017-09-30T13:09:36.222Z,15.68
2017-09-30T13:12:03.626Z,15.63
2017-09-30T13:14:31.024Z,15.68
2017-09-30T13:16:58.431Z,15.72
2017-09-30T13:19:25.827Z,15.71
2017-09-30T13:21:53.238Z,15.72
2017-09-30T13:24:20.636Z,15.57
2017-09-30T13:26:48.030Z,15.31
2017-09-30T13:29:15.432Z,15.30
2017-09-30T13:31:42.838Z,15.30
2017-09-30T13:34:10.251Z,15.31
2017-09-30T13:36:37.650Z,15.36
2017-09-30T13:39:05.060Z,15.28
2017-09-30T13:41:32.458Z,15.28
2017-09-30T13:43:59.858Z,15.36
2017-09-30T13:46:27.281Z,15.25
2017-09-30T13:48:54.680Z,15.25
2017-09-30T13:51:22.082Z,15.11
2017-09-30T13:53:49.474Z,15.06
2017-09-30T13:56:16.883Z,15.05
2017-09-30T13:58:44.279Z,15.01
2017-09-30T14:01:11.670Z,15.09
2017-09-30T14:03:39.066Z,15.04
2017-09-30T14:06:07.292Z,15.06
2017-09-30T14:08:34.687Z,15.06
2017-09-30T14:11:02.082Z,15.06
2017-09-30T14:13:29.636Z,15.11
2017-09-30T14:15:57.030Z,15.06
2017-09-30T14:18:24.430Z,15.14
2017-09-30T14:20:51.857Z,15.10
2017-09-30T14:23:19.250Z,15.10
2017-09-30T14:25:46.674Z,14.95
2017-09-30T14:28:14.077Z,14.91
2017-09-30T14:30:41.488Z,14.83
2017-09-30T14:33:08.895Z,14.85
2017-09-30T14:35:36.281Z,14.83
2017-09-30T14:38:03.691Z,14.76
2017-09-30T14:40:31.093Z,14.75
2017-09-30T14:42:58.486Z,14.62
2017-09-30T14:45:25.883Z,14.65
2017-09-30T14:47:53.295Z,14.61
2017-09-30T14:50:20.687Z,14.64
2017-09-30T14:52:48.086Z,14.74
2017-09-30T14:55:15.494Z,14.86
2017-09-30T14:57:42.906Z,14.81
2017-09-30T15:00:10.319Z,14.85
2017-09-30T15:02:37.695Z,14.86
2017-09-30T15:05:05.102Z,14.87
2017-09-30T15:07:32.492Z,14.90
2017-09-30T15:09:59.890Z,14.78
2017-09-30T15:12:27.310Z,14.72
2017-09-30T15:14:54.706Z,14.71
2017-09-30T15:17:22.114Z,14.75
2017-09-30T15:19:49.532Z,14.77
2017-09-30T15:22:16.927Z,14.80
2017-09-30T15:24:44.329Z,14.86
2017-09-30T15:27:11.737Z,14.90
2017-09-30T15:29:39.150Z,14.87
2017-09-30T15:32:06.543Z,14.76
2017-09-30T15:34:33.939Z,14.81
2017-09-30T15:37:01.346Z,14.78
2017-09-30T15:39:28.755Z,14.73
2017-09-30T15:41:56.155Z,14.79
2017-09-30T15:44:23.550Z,14.83
2017-09-30T15:46:50.951Z,14.84
2017-09-30T15:49:18.357Z,14.77
2017-09-30T15:51:45.758Z,14.76
2017-09-30T15:54:13.145Z,14.82
2017-09-30T15:56:40.556Z,14.78
2017-09-30T15:59:07.960Z,14.74
2017-09-30T16:01:35.414Z,14.73
2017-09-30T16:04:02.806Z,14.61
2017-09-30T16:06:30.199Z,14.53
2017-09-30T16:08:57.598Z,14.47
2017-09-30T16:11:24.986Z,14.35
2017-09-30T16:13:52.408Z,14.33
2017-09-30T16:16:19.800Z,14.29
2017-09-30T16:18:47.879Z,14.28
2017-09-30T16:21:15.283Z,14.22
2017-09-30T16:23:42.686Z,14.18
2017-09-30T16:26:10.082Z,14.07
2017-09-30T16:28:37.485Z,14.07
2017-09-30T16:31:04.884Z,14.07
2017-09-30T16:33:32.277Z,14.02
2017-09-30T16:35:59.665Z,13.99
2017-09-30T16:38:27.069Z,14.00
2017-09-30T16:40:54.450Z,13.98
2017-09-30T16:43:21.841Z,13.94
2017-09-30T16:45:49.257Z,13.84
2017-09-30T16:48:16.658Z,13.78
2017-09-30T16:50:44.050Z,13.82
2017-09-30T16:53:11.462Z,13.88
2017-09-30T16:55:38.862Z,13.83
2017-09-30T16:58:06.258Z,13.77
2017-09-30T17:00:33.657Z,13.78
2017-09-30T17:03:01.856Z,13.82
2017-09-30T17:05:29.318Z,13.85
2017-09-30T17:07:56.746Z,13.91
2017-09-30T17:10:24.142Z,13.91
2017-09-30T17:12:51.550Z,14.02
2017-09-30T17:15:19.614Z,13.97
2017-09-30T17:17:47.088Z,13.95
2017-09-30T17:20:14.550Z,13.86
2017-09-30T17:22:41.968Z,13.86
2017-09-30T17:25:09.364Z,13.85
2017-09-30T17:27:36.759Z,13.80
2017-09-30T17:30:04.214Z,13.80
2017-09-30T17:32:31.861Z,13.82
2017-09-30T17:34:59.245Z,13.83
2017-09-30T17:37:26.648Z,13.89
2017-09-30T17:39:55.003Z,13.95
2017-09-30T17:42:23.422Z,14.02
2017-09-30T17:44:50.822Z,14.10
2017-09-30T17:47:18.874Z,14.12
2017-09-30T17:49:46.310Z,13.90
2017-09-30T17:52:15.786Z,13.83
2017-09-30T17:54:43.180Z,13.63
2017-09-30T17:57:10.602Z,13.56
2017-09-30T17:59:38.002Z,13.53
2017-09-30T18:02:05.412Z,13.51
2017-09-30T18:04:32.819Z,13.59
2017-09-30T18:07:00.235Z,13.63
2017-09-30T18:09:28.025Z,13.68
2017-09-30T18:11:55.410Z,13.73
2017-09-30T18:14:22.818Z,13.80
2017-09-30T18:16:50.221Z,13.79
2017-09-30T18:19:18.441Z,13.77
2017-09-30T18:21:45.822Z,13.77
2017-09-30T18:24:13.219Z,13.82
2017-09-30T18:26:40.620Z,13.86
2017-09-30T18:29:08.010Z,13.88
2017-09-30T18:31:35.432Z,13.90
2017-09-30T18:34:02.826Z,13.89
2017-09-30T18:36:30.223Z,13.88
2017-09-30T18:38:57.626Z,13.84
2017-09-30T18:41:25.023Z,13.83
2017-09-30T18:44:02.663Z,13.78
2017-09-30T18:46:30.100Z,13.71
2017-09-30T18:48:58.342Z,13.66
2017-09-30T18:51:25.769Z,13.63
2017-09-30T18:53:53.150Z,13.63
2017-09-30T18:56:20.595Z,13.59
2017-09-30T18:58:48.595Z,13.57
2017-09-30T19:01:16.008Z,13.52
2017-09-30T19:03:43.800Z,13.51
2017-09-30T19:06:11.223Z,13.54
2017-09-30T19:08:38.618Z,13.61
2017-09-30T19:11:06.046Z,13.69
2017-09-30T19:13:37.822Z,13.74
2017-09-30T19:16:05.229Z,13.78
2017-09-30T19:18:32.637Z,13.83
2017-09-30T19:21:00.079Z,13.85
2017-09-30T19:23:27.495Z,13.84
2017-09-30T19:25:54.896Z,13.88
2017-09-30T19:28:22.290Z,13.87
2017-09-30T19:30:49.698Z,13.89
2017-09-30T19:33:17.110Z,13.87
2017-09-30T19:35:44.522Z,13.83
2017-09-30T19:38:11.926Z,13.87
2017-09-30T19:40:39.343Z,13.89
2017-09-30T19:43:06.734Z,13.90
2017-09-30T19:45:34.131Z,13.92
2017-09-30T19:48:01.536Z,13.95
2017-09-30T19:50:28.930Z,13.96
2017-09-30T19:52:56.345Z,13.97
2017-09-30T19:55:23.742Z,14.00
2017-09-30T19:57:51.162Z,14.04
2017-09-30T20:00:18.563Z,14.07
2017-09-30T20:02:45.955Z,14.09
2017-09-30T20:05:13.354Z,14.09
2017-09-30T20:07:40.750Z,14.09
2017-09-30T20:10:08.150Z,14.08
2017-09-30T20:12:35.546Z,14.07
2017-09-30T20:15:02.958Z,14.06
2017-09-30T20:17:30.359Z,14.02
2017-09-30T20:19:57.758Z,13.95
2017-09-30T20:22:25.157Z,13.86
2017-09-30T20:24:52.554Z,13.78
2017-09-30T20:27:19.959Z,13.71
2017-09-30T20:29:47.354Z,13.66
2017-09-30T20:32:14.780Z,13.60
2017-09-30T20:34:42.170Z,13.53
2017-09-30T20:37:09.568Z,13.49
2017-09-30T20:39:36.970Z,13.40
2017-09-30T20:42:04.364Z,13.35
2017-09-30T20:44:31.767Z,13.27
2017-09-30T20:46:59.159Z,13.20
2017-09-30T20:49:26.572Z,13.15
2017-09-30T20:51:53.968Z,13.10
2017-09-30T20:54:21.369Z,13.05
2017-09-30T20:56:48.771Z,13.00
2017-09-30T20:59:16.169Z,12.96
2017-09-30T21:01:43.586Z,12.90
2017-09-30T21:04:10.984Z,12.86
2017-09-30T21:06:38.404Z,12.79
2017-09-30T21:09:05.799Z,12.77
2017-09-30T21:11:33.193Z,12.71
2017-09-30T21:14:00.593Z,12.69
2017-09-30T21:16:27.989Z,12.64
2017-09-30T21:18:55.406Z,12.59
2017-09-30T21:21:22.803Z,12.55
2017-09-30T21:23:50.235Z,12.51
2017-09-30T21:26:17.630Z,12.50
2017-09-30T21:28:45.031Z,12.50
2017-09-30T21:31:12.440Z,12.46
2017-09-30T21:33:39.830Z,12.46
2017-09-30T21:36:07.232Z,12.42
2017-09-30T21:38:34.634Z,12.41
2017-09-30T21:41:02.052Z,12.38
2017-09-30T21:43:29.450Z,12.37
2017-09-30T21:45:56.846Z,12.35
2017-09-30T21:48:24.246Z,12.30
2017-09-30T21:50:51.639Z,12.25
2017-09-30T21:53:19.038Z,12.21
2017-09-30T21:55:46.434Z,12.16
2017-09-30T21:58:13.851Z,12.07
2017-09-30T22:00:41.254Z,12.10
2017-09-30T22:03:08.643Z,12.05
2017-09-30T22:05:36.043Z,12.04
2017-09-30T22:08:03.439Z,12.00
2017-09-30T22:10:30.842Z,11.98
2017-09-30T22:12:58.243Z,11.95
2017-09-30T22:15:25.639Z,11.90
2017-09-30T22:17:53.039Z,11.88
2017-09-30T22:20:20.437Z,11.86
2017-09-30T22:22:47.834Z,11.84
2017-09-30T22:25:15.235Z,11.82
2017-09-30T22:27:42.646Z,11.83
2017-09-30T22:30:10.054Z,11.81
2017-09-30T22:32:37.450Z,11.78
2017-09-30T22:35:04.876Z,11.76
2017-09-30T22:37:32.270Z,11.75
2017-09-30T22:39:59.666Z,11.75
2017-09-30T22:42:27.075Z,11.73
2017-09-30T22:44:54.466Z,11.73
2017-09-30T22:47:21.890Z,11.70
2017-09-30T22:49:49.283Z,11.67
2017-09-30T22:52:16.674Z,11.62
2017-09-30T22:54:44.382Z,11.60
2017-09-30T22:57:11.785Z,11.57
2017-09-30T22:59:39.221Z,11.55
2017-09-30T23:02:06.596Z,11.52
2017-09-30T23:04:33.992Z,11.51
2017-09-30T23:07:01.393Z,11.51
2017-09-30T23:09:28.787Z,11.50
2017-09-30T23:11:56.190Z,11.50
2017-09-30T23:14:23.590Z,11.49
2017-09-30T23:16:54.170Z,11.48
2017-09-30T23:19:21.567Z,11.48
2017-09-30T23:21:48.967Z,11.46
2017-09-30T23:24:16.363Z,11.44
2017-09-30T23:26:43.762Z,11.43
2017-09-30T23:29:11.171Z,11.40
2017-09-30T23:31:38.564Z,11.41
2017-09-30T23:34:05.959Z,11.41
2017-09-30T23:36:33.358Z,11.39
2017-09-30T23:39:00.755Z,11.40
2017-09-30T23:41:28.159Z,11.37
2017-09-30T23:43:55.551Z,11.36
2017-09-30T23:46:22.970Z,11.32
2017-09-30T23:48:50.366Z,11.31
2017-09-30T23:51:17.771Z,11.27
2017-09-30T23:53:45.174Z,11.26
2017-09-30T23:56:12.567Z,11.24
2017-09-30T23:58:39.970Z,11.21
